Time;durP1;ratioP1;P1;durP2;ratioP2;P2;SDS_P1;SDS_P2;PMS_P1;PMS_P2;Temp;Humidity;BMP_temperature;BMP_pressure;BME280_temperature;BME280_humidity;BME280_pressure;Samples;Min_cycle;Max_cycle;Signal;HPM_P1;HPM_P2
2023/12/04 00:00:38;;;;;;;29.95;16.92;;;0.00;99.90;;;;;;5073972;28;20048;-68
2023/12/04 00:03:07;;;;;;;25.50;15.43;;;0.00;99.90;;;;;;5074009;28;20047;-68
2023/12/04 00:05:33;;;;;;;28.00;15.80;;;0.00;99.90;;;;;;5073476;28;20056;-68
2023/12/04 00:08:00;;;;;;;29.92;15.57;;;0.00;99.90;;;;;;5089891;28;20044;-68
2023/12/04 00:10:27;;;;;;;28.92;16.52;;;0.00;99.90;;;;;;5073982;28;20446;-68
2023/12/04 00:12:55;;;;;;;27.70;15.40;;;0.00;99.90;;;;;;5091616;28;20500;-68
2023/12/04 00:15:21;;;;;;;28.15;15.95;;;0.00;99.90;;;;;;5074075;28;20055;-68
2023/12/04 00:17:48;;;;;;;30.13;16.00;;;0.00;99.90;;;;;;5091544;28;20080;-67
2023/12/04 00:20:17;;;;;;;27.20;15.48;;;0.00;99.90;;;;;;5073208;28;20040;-67
2023/12/04 00:22:44;;;;;;;32.78;17.45;;;0.00;99.90;;;;;;5091905;28;20047;-68
2023/12/04 00:25:10;;;;;;;27.10;16.15;;;0.00;99.90;;;;;;5073499;28;20048;-68
2023/12/04 00:27:37;;;;;;;27.90;16.45;;;0.00;99.90;;;;;;5073647;28;20052;-68
2023/12/04 00:30:05;;;;;;;26.20;15.90;;;0.00;99.90;;;;;;5073498;28;20040;-67
2023/12/04 00:32:32;;;;;;;25.55;14.65;;;0.00;99.90;;;;;;5073201;28;20135;-67
2023/12/04 00:34:59;;;;;;;25.70;16.00;;;0.00;99.90;;;;;;5092066;28;20061;-67
2023/12/04 00:37:28;;;;;;;29.10;16.60;;;0.00;99.90;;;;;;5073667;28;20450;-67
2023/12/04 00:39:55;;;;;;;25.60;15.27;;;0.00;99.90;;;;;;5075348;28;20075;-68
2023/12/04 00:42:22;;;;;;;27.40;16.55;;;0.00;99.90;;;;;;5095779;28;20048;-67
2023/12/04 00:44:49;;;;;;;29.08;16.63;;;0.00;99.90;;;;;;5095655;28;20048;-67
2023/12/04 00:47:16;;;;;;;30.40;16.83;;;0.00;99.90;;;;;;5075219;28;20047;-67
2023/12/04 00:49:43;;;;;;;29.00;16.50;;;0.00;99.90;;;;;;5077594;28;20063;-67
2023/12/04 00:52:10;;;;;;;30.85;17.05;;;-0.10;99.90;;;;;;5077650;28;20097;-68
2023/12/04 00:54:40;;;;;;;28.92;17.67;;;-0.10;99.90;;;;;;5094942;28;20051;-67
2023/12/04 00:57:07;;;;;;;31.40;18.75;;;-0.10;99.90;;;;;;5077186;28;20504;-67
2023/12/04 00:59:33;;;;;;;28.33;16.33;;;-0.10;99.90;;;;;;5077327;28;20445;-66
2023/12/04 01:02:00;;;;;;;33.58;17.52;;;-0.10;99.90;;;;;;5076813;28;20105;-66
2023/12/04 01:04:27;;;;;;;30.00;17.17;;;-0.10;99.90;;;;;;5077297;28;20044;-67
2023/12/04 01:06:54;;;;;;;27.33;15.77;;;-0.10;99.90;;;;;;5076892;28;20051;-67
2023/12/04 01:09:24;;;;;;;29.83;18.02;;;-0.10;99.90;;;;;;5076655;28;20059;-67
2023/12/04 01:11:53;;;;;;;28.80;17.40;;;-0.10;99.90;;;;;;5075209;28;20575;-68
2023/12/04 01:14:20;;;;;;;29.43;16.93;;;-0.10;99.90;;;;;;5076585;28;20077;-67
2023/12/04 01:16:47;;;;;;;30.20;16.70;;;-0.10;99.90;;;;;;5077074;28;20597;-67
2023/12/04 01:19:14;;;;;;;29.00;17.25;;;-0.10;99.90;;;;;;5092818;28;20044;-67
2023/12/04 01:21:41;;;;;;;25.23;15.52;;;-0.10;99.90;;;;;;5094508;28;20113;-67
2023/12/04 01:24:08;;;;;;;26.05;16.33;;;0.60;99.90;;;;;;5074796;28;20059;-68
2023/12/04 01:26:35;;;;;;;28.67;17.52;;;-0.10;99.90;;;;;;5077041;28;20059;-67
2023/12/04 01:29:03;;;;;;;25.98;15.77;;;-0.10;99.90;;;;;;5076387;28;20388;-69
2023/12/04 01:31:30;;;;;;;25.80;15.85;;;-0.10;99.90;;;;;;5076931;28;20044;-69
2023/12/04 01:33:57;;;;;;;27.73;16.60;;;-0.10;99.90;;;;;;5076843;28;20050;-69
2023/12/04 01:36:24;;;;;;;29.77;15.98;;;-0.10;99.90;;;;;;5074170;28;20052;-67
2023/12/04 01:38:51;;;;;;;24.80;15.40;;;-0.10;99.90;;;;;;5076358;28;20090;-69
2023/12/04 01:41:17;;;;;;;27.05;14.95;;;-0.10;99.90;;;;;;5076412;28;20119;-67
2023/12/04 01:43:44;;;;;;;24.85;15.00;;;-0.10;99.90;;;;;;5076015;28;20140;-68
2023/12/04 01:46:16;;;;;;;29.40;16.05;;;-0.10;99.90;;;;;;5076693;28;20060;-68
2023/12/04 01:48:44;;;;;;;26.17;15.50;;;-0.10;99.90;;;;;;5092515;28;20081;-68
2023/12/04 01:51:13;;;;;;;26.45;15.10;;;-0.10;99.90;;;;;;5075455;28;20056;-67
2023/12/04 01:53:41;;;;;;;26.25;15.23;;;0.30;99.90;;;;;;5076253;28;20097;-68
2023/12/04 01:56:09;;;;;;;25.48;15.25;;;-0.10;99.90;;;;;;5092136;28;20044;-68
2023/12/04 01:58:36;;;;;;;25.80;14.93;;;0.00;99.90;;;;;;5075456;28;20059;-67
2023/12/04 02:01:03;;;;;;;23.02;13.85;;;0.00;99.90;;;;;;5076158;28;20044;-66
2023/12/04 02:03:31;;;;;;;24.17;14.98;;;0.00;99.90;;;;;;5076173;28;20055;-67
2023/12/04 02:06:02;;;;;;;27.13;15.45;;;-0.10;99.90;;;;;;5076092;28;20044;-67
2023/12/04 02:08:30;;;;;;;27.38;14.52;;;0.00;99.90;;;;;;5074487;28;20488;-67
2023/12/04 02:10:56;;;;;;;23.88;14.10;;;0.00;99.90;;;;;;5075586;28;20130;-67
2023/12/04 02:13:24;;;;;;;25.38;14.90;;;0.00;99.90;;;;;;5075943;28;20056;-67
2023/12/04 02:15:54;;;;;;;22.73;14.43;;;0.00;99.90;;;;;;5091802;28;20047;-68
2023/12/04 02:18:22;;;;;;;26.20;14.90;;;0.00;99.90;;;;;;5074996;28;20052;-68
2023/12/04 02:20:50;;;;;;;25.10;15.02;;;0.00;99.90;;;;;;5093957;28;20067;-67
2023/12/04 02:23:17;;;;;;;26.17;15.00;;;-0.10;99.90;;;;;;5073692;28;20052;-67
2023/12/04 02:25:45;;;;;;;24.98;15.48;;;0.10;99.90;;;;;;5093479;28;20040;-68
2023/12/04 02:28:16;;;;;;;25.42;15.40;;;0.00;99.90;;;;;;5073694;28;20093;-68
2023/12/04 02:30:46;;;;;;;26.70;15.48;;;0.00;99.90;;;;;;5075656;28;20435;-67
2023/12/04 02:33:15;;;;;;;26.48;14.48;;;0.00;99.90;;;;;;5075179;28;20051;-67
2023/12/04 02:35:43;;;;;;;24.73;14.57;;;0.30;99.90;;;;;;5093609;28;20143;-68
2023/12/04 02:38:11;;;;;;;26.42;14.70;;;0.00;99.90;;;;;;5075342;28;20075;-67
2023/12/04 02:40:38;;;;;;;26.00;15.35;;;0.00;99.90;;;;;;5074768;28;20089;-68
2023/12/04 02:43:06;;;;;;;24.83;13.48;;;0.00;99.90;;;;;;5073518;28;20071;-67
2023/12/04 02:45:33;;;;;;;24.58;14.57;;;0.00;99.90;;;;;;5075322;28;20101;-67
2023/12/04 02:48:00;;;;;;;24.55;14.63;;;0.00;99.90;;;;;;5074958;28;20052;-68
2023/12/04 02:50:27;;;;;;;23.17;13.73;;;0.00;99.90;;;;;;5075213;28;20101;-67
2023/12/04 02:52:53;;;;;;;25.45;15.32;;;0.00;99.90;;;;;;5074592;28;20124;-67
2023/12/04 02:55:20;;;;;;;23.88;15.40;;;0.00;99.90;;;;;;5075108;28;20081;-67
2023/12/04 02:57:47;;;;;;;25.15;14.18;;;0.00;99.90;;;;;;5075350;28;20102;-67
2023/12/04 03:00:16;;;;;;;24.70;14.35;;;0.10;99.90;;;;;;5074051;28;20043;-67
2023/12/04 03:02:43;;;;;;;22.83;13.40;;;0.10;99.90;;;;;;5074336;28;20044;-67
2023/12/04 03:05:10;;;;;;;21.48;13.45;;;0.10;99.90;;;;;;5075056;28;20044;-68
2023/12/04 03:07:37;;;;;;;21.48;13.75;;;0.10;99.90;;;;;;5074274;28;20048;-67
2023/12/04 03:10:04;;;;;;;22.05;13.38;;;0.10;99.90;;;;;;5074819;28;20056;-67
2023/12/04 03:12:31;;;;;;;23.17;13.75;;;0.10;99.90;;;;;;5074860;28;20498;-67
2023/12/04 03:14:58;;;;;;;22.90;13.50;;;0.20;99.90;;;;;;5074348;28;20457;-67
2023/12/04 03:17:27;;;;;;;25.40;14.85;;;0.10;99.90;;;;;;5074313;28;20105;-66
2023/12/04 03:19:54;;;;;;;22.55;13.93;;;0.10;99.90;;;;;;5092711;28;20105;-66
2023/12/04 03:22:21;;;;;;;24.88;14.23;;;0.20;99.90;;;;;;5073977;28;20537;-67
2023/12/04 03:24:47;;;;;;;20.48;12.55;;;0.20;99.90;;;;;;5074558;28;20060;-67
2023/12/04 03:27:14;;;;;;;22.88;13.40;;;0.20;99.90;;;;;;5074637;28;20052;-67
2023/12/04 03:29:41;;;;;;;24.05;13.85;;;0.20;99.90;;;;;;5073948;28;20052;-67
2023/12/04 03:32:08;;;;;;;24.70;15.18;;;0.20;99.90;;;;;;5074439;28;20047;-68
2023/12/04 03:34:36;;;;;;;26.00;13.93;;;0.20;99.90;;;;;;5074388;28;20056;-68
2023/12/04 03:37:03;;;;;;;23.98;13.68;;;0.20;99.90;;;;;;5074073;28;20063;-69
2023/12/04 03:39:30;;;;;;;23.70;13.70;;;0.20;99.90;;;;;;5074275;28;20457;-68
2023/12/04 03:41:57;;;;;;;26.35;14.48;;;0.50;99.90;;;;;;5074218;28;20573;-67
2023/12/04 03:44:24;;;;;;;25.65;14.38;;;0.20;99.90;;;;;;5073729;28;20075;-68
2023/12/04 03:46:51;;;;;;;23.13;13.82;;;0.20;99.90;;;;;;5074485;28;20450;-66
2023/12/04 03:49:18;;;;;;;24.23;14.27;;;0.20;99.90;;;;;;5089594;28;20040;-67
2023/12/04 03:51:46;;;;;;;24.27;14.40;;;0.20;99.90;;;;;;5092158;28;20048;-67
2023/12/04 03:54:13;;;;;;;22.83;13.15;;;0.20;99.90;;;;;;5074147;28;20048;-67
2023/12/04 03:56:41;;;;;;;25.98;14.90;;;0.20;99.90;;;;;;5073709;28;20044;-68
2023/12/04 03:59:10;;;;;;;26.25;14.63;;;0.20;99.90;;;;;;5074232;28;20523;-67
2023/12/04 04:01:37;;;;;;;24.58;13.00;;;0.20;99.90;;;;;;5071831;28;20071;-68
2023/12/04 04:04:04;;;;;;;23.80;14.45;;;0.20;99.90;;;;;;5073678;28;20109;-68
2023/12/04 04:06:31;;;;;;;28.00;15.52;;;0.20;99.90;;;;;;5074060;28;20089;-68
2023/12/04 04:09:00;;;;;;;24.05;13.70;;;0.30;99.90;;;;;;5074114;28;20087;-69
2023/12/04 04:11:27;;;;;;;25.92;14.77;;;0.20;99.90;;;;;;5073513;28;20040;-68
2023/12/04 04:13:54;;;;;;;22.98;13.25;;;0.20;99.90;;;;;;5073844;28;20109;-69
2023/12/04 04:16:20;;;;;;;26.65;14.48;;;1.20;99.90;;;;;;5074007;28;20048;-69
2023/12/04 04:18:47;;;;;;;26.05;15.13;;;0.20;99.90;;;;;;5070911;28;20097;-69
2023/12/04 04:21:14;;;;;;;26.10;14.75;;;0.20;99.90;;;;;;5091866;28;20044;-69
2023/12/04 04:23:41;;;;;;;30.15;15.88;;;0.20;99.90;;;;;;5073896;28;20094;-68
2023/12/04 04:26:09;;;;;;;25.73;15.45;;;0.20;99.90;;;;;;5073336;28;20098;-69
2023/12/04 04:28:36;;;;;;;26.33;13.93;;;0.20;99.90;;;;;;5073937;28;20124;-69
2023/12/04 04:31:03;;;;;;;27.10;14.63;;;0.20;99.90;;;;;;5073830;28;20420;-69
2023/12/04 04:33:30;;;;;;;23.42;14.07;;;0.20;99.90;;;;;;5073047;28;20040;-69
2023/12/04 04:35:57;;;;;;;24.48;14.52;;;0.20;99.90;;;;;;5071768;28;20097;-68
2023/12/04 04:38:24;;;;;;;27.08;14.95;;;0.20;99.90;;;;;;5072937;28;20097;-68
2023/12/04 04:40:52;;;;;;;26.80;15.05;;;0.20;99.90;;;;;;5073492;28;20051;-68
2023/12/04 04:43:20;;;;;;;25.73;14.02;;;0.20;99.90;;;;;;5073551;28;20131;-68
2023/12/04 04:45:47;;;;;;;24.30;13.63;;;0.20;99.90;;;;;;5072881;28;20056;-67
2023/12/04 04:48:14;;;;;;;24.73;13.68;;;0.20;99.90;;;;;;5073279;28;20052;-68
2023/12/04 04:50:41;;;;;;;24.63;15.55;;;0.20;99.90;;;;;;5091437;28;20130;-68
2023/12/04 04:53:08;;;;;;;27.35;14.57;;;0.20;99.90;;;;;;5073132;28;20500;-68
2023/12/04 04:55:35;;;;;;;24.88;14.10;;;0.20;99.90;;;;;;5073587;28;20052;-69
2023/12/04 04:58:02;;;;;;;25.95;14.02;;;0.20;99.90;;;;;;5073712;28;20060;-68
2023/12/04 05:00:30;;;;;;;24.95;14.05;;;0.20;99.90;;;;;;5072695;28;20146;-68
2023/12/04 05:02:57;;;;;;;27.42;14.93;;;0.20;99.90;;;;;;5073009;28;20044;-68
2023/12/04 05:05:24;;;;;;;23.58;14.48;;;0.20;99.90;;;;;;5073688;28;20048;-69
2023/12/04 05:07:50;;;;;;;22.25;13.60;;;0.30;99.90;;;;;;5072922;28;20051;-69
2023/12/04 05:10:17;;;;;;;22.17;13.52;;;0.30;99.90;;;;;;5073417;28;20056;-69
2023/12/04 05:12:44;;;;;;;23.38;14.32;;;0.30;99.90;;;;;;5073432;28;20050;-69
2023/12/04 05:15:11;;;;;;;23.30;13.88;;;0.30;99.90;;;;;;5072683;28;20047;-68
2023/12/04 05:17:39;;;;;;;27.02;14.30;;;0.30;99.90;;;;;;5062016;28;20540;-69
2023/12/04 05:20:08;;;;;;;26.48;15.57;;;0.30;99.90;;;;;;5049946;28;20049;-69
2023/12/04 05:22:35;;;;;;;24.90;14.75;;;0.20;99.90;;;;;;5047303;28;20045;-67
2023/12/04 05:25:02;;;;;;;26.77;13.82;;;1.70;99.90;;;;;;5050604;28;20086;-68
2023/12/04 05:27:29;;;;;;;26.27;13.68;;;1.90;99.90;;;;;;5053705;28;20531;-68
2023/12/04 05:29:56;;;;;;;22.40;13.05;;;0.20;99.90;;;;;;5053546;28;20460;-67
2023/12/04 05:32:23;;;;;;;20.40;12.85;;;0.20;99.90;;;;;;5054630;28;20041;-68
2023/12/04 05:34:51;;;;;;;25.63;13.05;;;0.30;99.90;;;;;;5050927;28;20106;-68
2023/12/04 05:37:18;;;;;;;23.65;12.73;;;1.20;99.90;;;;;;5053182;28;20098;-68
2023/12/04 05:39:45;;;;;;;24.13;13.63;;;0.20;99.90;;;;;;5053385;28;20057;-69
2023/12/04 05:42:11;;;;;;;21.05;13.65;;;1.20;99.90;;;;;;5052510;28;20098;-69
2023/12/04 05:44:37;;;;;;;24.75;14.43;;;0.30;99.90;;;;;;5053598;28;20045;-69
2023/12/04 05:47:04;;;;;;;22.80;13.38;;;0.30;99.90;;;;;;5052424;28;20103;-69
2023/12/04 05:49:33;;;;;;;21.85;13.32;;;0.30;99.90;;;;;;5053357;28;20436;-69
2023/12/04 05:52:01;;;;;;;24.58;13.07;;;0.30;99.90;;;;;;5053057;28;20496;-69
2023/12/04 05:54:28;;;;;;;25.23;14.30;;;0.30;99.90;;;;;;5048628;28;20069;-68
2023/12/04 05:56:55;;;;;;;21.33;12.57;;;-0.80;99.90;;;;;;5049429;28;20048;-70
2023/12/04 05:59:21;;;;;;;21.48;13.85;;;0.30;99.90;;;;;;5051772;28;20048;-71
2023/12/04 06:01:49;;;;;;;23.80;13.02;;;0.30;99.90;;;;;;5045559;28;20049;-70
2023/12/04 06:04:16;;;;;;;22.50;12.05;;;0.30;99.90;;;;;;5048293;28;20140;-70
2023/12/04 06:06:42;;;;;;;20.92;11.75;;;1.40;99.90;;;;;;5048425;28;20092;-71
2023/12/04 06:09:11;;;;;;;20.73;12.52;;;0.30;99.90;;;;;;5051825;28;20053;-69
2023/12/04 06:11:38;;;;;;;20.05;12.77;;;0.30;99.90;;;;;;5049208;28;20076;-70
2023/12/04 06:14:04;;;;;;;21.85;12.70;;;0.30;99.90;;;;;;5052076;28;20083;-70
2023/12/04 06:16:31;;;;;;;21.80;12.50;;;0.30;99.90;;;;;;5052111;28;20427;-70
2023/12/04 06:18:58;;;;;;;22.52;12.98;;;0.30;99.90;;;;;;5073246;28;20056;-70
2023/12/04 06:21:25;;;;;;;26.38;13.90;;;0.30;99.90;;;;;;5074700;28;20496;-70
2023/12/04 06:23:52;;;;;;;22.10;13.13;;;0.30;99.90;;;;;;5075082;28;20047;-69
2023/12/04 06:26:21;;;;;;;21.33;12.45;;;0.30;99.90;;;;;;5089755;28;20089;-70
2023/12/04 06:28:49;;;;;;;21.75;13.48;;;0.30;99.90;;;;;;5071133;28;20048;-69
2023/12/04 06:31:16;;;;;;;21.60;12.30;;;0.30;99.90;;;;;;5074295;28;20112;-69
2023/12/04 06:33:43;;;;;;;18.92;10.88;;;0.30;99.90;;;;;;5074754;28;20712;-69
2023/12/04 06:36:13;;;;;;;21.42;11.98;;;0.30;99.90;;;;;;5074986;28;20430;-69
2023/12/04 06:38:41;;;;;;;22.08;12.10;;;0.30;99.90;;;;;;5073426;28;20048;-69
2023/12/04 06:41:09;;;;;;;21.70;11.88;;;0.30;99.90;;;;;;5074035;28;20060;-69
2023/12/04 06:43:38;;;;;;;21.45;11.88;;;0.40;99.90;;;;;;5072849;28;20044;-69
2023/12/04 06:46:06;;;;;;;19.00;12.18;;;0.30;99.90;;;;;;5073716;28;20047;-68
2023/12/04 06:48:34;;;;;;;21.33;11.65;;;0.30;99.90;;;;;;5092767;28;20051;-69
2023/12/04 06:51:01;;;;;;;21.88;12.73;;;0.30;99.90;;;;;;5072155;28;20101;-70
2023/12/04 06:53:28;;;;;;;19.20;11.50;;;0.30;99.90;;;;;;5073746;28;20438;-69
2023/12/04 06:55:54;;;;;;;19.90;11.93;;;0.30;99.90;;;;;;5072352;28;20078;-69
2023/12/04 06:58:21;;;;;;;19.95;12.15;;;0.30;99.90;;;;;;5074429;28;20488;-69
2023/12/04 07:00:51;;;;;;;18.02;12.13;;;0.30;99.90;;;;;;5087365;28;20048;-70
2023/12/04 07:03:17;;;;;;;19.15;11.48;;;0.30;99.90;;;;;;5071236;28;20044;-70
2023/12/04 07:05:44;;;;;;;20.55;12.02;;;0.30;99.90;;;;;;5073999;28;20052;-69
2023/12/04 07:08:11;;;;;;;19.00;10.77;;;0.30;99.90;;;;;;5071617;28;20048;-69
2023/12/04 07:10:38;;;;;;;21.80;11.27;;;0.30;99.90;;;;;;5073662;28;20470;-69
2023/12/04 07:13:05;;;;;;;20.75;11.30;;;0.30;99.90;;;;;;5073485;28;20488;-69
2023/12/04 07:15:31;;;;;;;18.48;11.88;;;0.30;99.90;;;;;;5073961;28;20098;-69
2023/12/04 07:18:00;;;;;;;19.77;12.00;;;0.30;99.90;;;;;;5074003;28;20056;-68
2023/12/04 07:20:27;;;;;;;20.73;12.60;;;0.20;99.90;;;;;;5073457;28;20155;-68
2023/12/04 07:22:54;;;;;;;21.70;11.82;;;0.20;99.90;;;;;;5073648;28;20054;-68
2023/12/04 07:25:21;;;;;;;19.50;10.95;;;0.20;99.90;;;;;;5070364;28;20051;-68
2023/12/04 07:27:48;;;;;;;20.95;12.10;;;0.20;99.90;;;;;;5072176;28;20047;-69
2023/12/04 07:30:15;;;;;;;20.02;11.05;;;0.20;99.90;;;;;;5070979;28;20040;-69
2023/12/04 07:32:41;;;;;;;20.00;10.70;;;0.30;99.90;;;;;;5074433;28;20451;-69
2023/12/04 07:35:10;;;;;;;19.55;11.25;;;0.30;99.90;;;;;;5073101;28;20075;-69
2023/12/04 07:37:37;;;;;;;22.48;11.32;;;0.30;99.90;;;;;;5072331;28;20403;-70
2023/12/04 07:40:07;;;;;;;20.85;11.15;;;0.20;99.90;;;;;;5074338;28;20526;-69
2023/12/04 07:42:34;;;;;;;19.23;11.18;;;0.30;99.90;;;;;;5073761;28;20473;-68
2023/12/04 07:45:01;;;;;;;22.55;11.40;;;0.30;99.90;;;;;;5071970;28;20488;-69
2023/12/04 07:47:28;;;;;;;19.77;11.05;;;0.30;99.90;;;;;;5073930;28;20048;-69
2023/12/04 07:49:55;;;;;;;20.55;11.50;;;0.30;99.90;;;;;;5071586;28;20052;-68
2023/12/04 07:52:23;;;;;;;20.25;11.18;;;0.30;99.90;;;;;;5074191;28;20163;-69
2023/12/04 07:54:50;;;;;;;18.40;9.40;;;0.30;99.90;;;;;;5073860;28;20442;-68
2023/12/04 07:57:17;;;;;;;19.52;10.93;;;0.30;99.90;;;;;;5072580;28;20560;-68
2023/12/04 07:59:44;;;;;;;16.98;10.25;;;0.30;99.90;;;;;;5071603;28;20131;-68
2023/12/04 08:02:11;;;;;;;19.08;11.27;;;0.40;99.90;;;;;;5090103;28;20040;-68
2023/12/04 08:04:38;;;;;;;20.15;10.52;;;0.40;99.90;;;;;;5073358;28;20043;-69
2023/12/04 08:07:05;;;;;;;17.40;10.68;;;0.40;99.90;;;;;;5091947;28;20110;-69
2023/12/04 08:09:33;;;;;;;17.80;11.27;;;0.40;99.90;;;;;;5073439;28;20114;-68
2023/12/04 08:12:00;;;;;;;21.48;11.40;;;0.40;99.90;;;;;;5073965;28;20569;-68
2023/12/04 08:14:27;;;;;;;19.40;11.48;;;0.40;99.90;;;;;;5073830;28;20056;-68
2023/12/04 08:16:54;;;;;;;17.13;10.00;;;0.50;99.90;;;;;;5091008;28;20036;-69
2023/12/04 08:19:22;;;;;;;18.88;10.80;;;0.50;99.90;;;;;;5071870;28;20120;-69
2023/12/04 08:21:49;;;;;;;17.95;10.60;;;0.50;99.90;;;;;;5073704;28;20051;-68
2023/12/04 08:24:18;;;;;;;15.63;10.38;;;0.60;99.90;;;;;;5073285;28;20048;-69
2023/12/04 08:26:46;;;;;;;21.17;10.32;;;0.60;99.90;;;;;;5073975;28;20048;-69
2023/12/04 08:29:13;;;;;;;18.33;10.10;;;0.60;99.90;;;;;;5065580;28;20082;-69
2023/12/04 08:31:40;;;;;;;16.67;9.45;;;0.60;99.90;;;;;;5071361;28;20048;-68
2023/12/04 08:34:07;;;;;;;16.67;9.95;;;0.60;99.90;;;;;;5072257;28;20048;-69
2023/12/04 08:36:34;;;;;;;17.33;10.32;;;0.70;99.90;;;;;;5070746;28;20082;-70
2023/12/04 08:39:01;;;;;;;15.32;9.90;;;0.70;99.90;;;;;;5085921;28;20435;-69
2023/12/04 08:41:28;;;;;;;15.95;9.25;;;0.70;99.90;;;;;;5072778;28;20048;-70
2023/12/04 08:43:57;;;;;;;16.95;9.30;;;0.80;99.90;;;;;;5071211;28;20550;-70
2023/12/04 08:46:23;;;;;;;13.10;8.38;;;0.70;99.90;;;;;;5071934;28;20067;-70
2023/12/04 08:48:50;;;;;;;14.18;9.02;;;1.00;99.90;;;;;;5072941;28;20093;-70
2023/12/04 08:51:18;;;;;;;15.55;9.52;;;0.80;99.90;;;;;;5072524;28;20055;-69
2023/12/04 08:53:45;;;;;;;16.42;9.50;;;0.90;99.90;;;;;;5072390;28;20097;-70
2023/12/04 08:56:12;;;;;;;14.93;8.50;;;0.90;99.90;;;;;;5072543;28;20052;-69
2023/12/04 08:58:39;;;;;;;14.40;8.63;;;0.90;99.90;;;;;;5072052;28;20153;-69
2023/12/04 09:01:08;;;;;;;15.18;9.60;;;1.00;99.90;;;;;;5074713;28;20509;-69
2023/12/04 09:03:34;;;;;;;17.83;9.50;;;0.90;99.90;;;;;;5094686;28;20438;-69
2023/12/04 09:06:01;;;;;;;17.05;8.73;;;1.00;99.90;;;;;;5075692;28;20044;-68
2023/12/04 09:08:28;;;;;;;14.32;8.90;;;1.00;99.90;;;;;;5076482;28;20048;-69
2023/12/04 09:10:56;;;;;;;18.02;8.95;;;1.30;99.90;;;;;;5074237;28;20097;-69
2023/12/04 09:13:24;;;;;;;16.05;8.90;;;1.00;99.90;;;;;;5076155;28;20048;-69
2023/12/04 09:15:51;;;;;;;14.05;8.68;;;1.00;99.90;;;;;;5075220;28;20106;-69
2023/12/04 09:18:19;;;;;;;14.70;8.05;;;1.00;99.90;;;;;;5075918;28;20052;-70
2023/12/04 09:20:46;;;;;;;14.80;8.38;;;1.20;99.90;;;;;;5075179;28;20050;-69
2023/12/04 09:23:13;;;;;;;16.10;8.68;;;1.00;99.90;;;;;;5075965;28;20040;-69
2023/12/04 09:25:40;;;;;;;14.57;8.10;;;1.10;99.90;;;;;;5075972;28;20450;-68
2023/12/04 09:28:07;;;;;;;14.48;8.60;;;1.10;99.90;;;;;;5075769;28;20056;-68
2023/12/04 09:30:36;;;;;;;16.67;8.40;;;1.10;99.90;;;;;;5075098;28;20086;-69
2023/12/04 09:33:03;;;;;;;13.93;7.85;;;1.20;99.90;;;;;;5075999;28;20407;-68
2023/12/04 09:35:31;;;;;;;12.90;7.95;;;1.10;99.90;;;;;;5071837;28;20489;-70
2023/12/04 09:37:59;;;;;;;14.55;8.95;;;1.10;99.90;;;;;;5076087;28;20492;-69
2023/12/04 09:40:26;;;;;;;13.82;7.85;;;1.10;99.90;;;;;;5075210;28;20044;-69
2023/12/04 09:42:53;;;;;;;12.93;7.70;;;1.20;99.90;;;;;;5075369;28;20176;-70
2023/12/04 09:45:21;;;;;;;11.88;7.53;;;1.20;99.90;;;;;;5075557;28;20056;-70
2023/12/04 09:47:49;;;;;;;13.32;8.10;;;1.30;99.90;;;;;;5075912;28;20055;-69
2023/12/04 09:50:20;;;;;;;16.67;7.57;;;1.30;99.90;;;;;;5093063;28;20126;-69
2023/12/04 09:52:50;;;;;;;11.63;7.82;;;1.30;99.90;;;;;;5075940;28;20047;-69
2023/12/04 09:55:17;;;;;;;14.68;7.35;;;1.40;99.90;;;;;;5072630;28;20551;-70
2023/12/04 09:57:45;;;;;;;11.50;7.32;;;1.40;99.90;;;;;;5075974;28;20044;-71
2023/12/04 10:00:14;;;;;;;14.15;8.10;;;1.40;99.90;;;;;;5075305;28;20048;-71
2023/12/04 10:02:42;;;;;;;11.55;6.63;;;1.50;99.90;;;;;;5075142;28;20048;-71
2023/12/04 10:05:09;;;;;;;11.00;7.20;;;1.50;99.90;;;;;;5075327;28;20125;-70
2023/12/04 10:07:37;;;;;;;11.93;7.13;;;1.60;99.90;;;;;;5075541;28;20446;-70
2023/12/04 10:10:07;;;;;;;11.30;6.55;;;1.60;99.90;;;;;;5074301;28;20051;-70
2023/12/04 10:12:36;;;;;;;10.73;7.05;;;1.70;99.90;;;;;;5073598;28;20044;-70
2023/12/04 10:15:08;;;;;;;11.73;6.50;;;1.80;99.90;;;;;;5074990;28;20052;-70
2023/12/04 10:17:37;;;;;;;11.15;6.70;;;1.90;99.90;;;;;;5073996;28;20481;-69
2023/12/04 10:20:11;;;;;;;12.25;7.18;;;2.00;99.90;;;;;;5074938;28;20537;-70
2023/12/04 10:22:39;;;;;;;12.50;7.53;;;2.00;99.90;;;;;;5075027;28;20138;-70
2023/12/04 10:25:17;;;;;;;13.05;7.18;;;2.10;99.90;;;;;;5074774;28;20067;-70
2023/12/04 10:27:44;;;;;;;12.18;6.85;;;2.30;99.90;;;;;;5074173;28;20102;-69
2023/12/04 10:30:24;;;;;;;10.88;6.97;;;2.40;99.90;;;;;;5072246;28;20051;-69
2023/12/04 10:32:55;;;;;;;12.38;6.68;;;2.50;99.90;;;;;;5092717;28;20050;-69
2023/12/04 10:35:22;;;;;;;10.50;6.72;;;2.60;99.90;;;;;;5074713;28;20070;-69
2023/12/04 10:37:49;;;;;;;11.35;6.60;;;2.70;99.90;;;;;;5073315;28;20052;-69
2023/12/04 10:40:25;;;;;;;11.82;6.95;;;2.70;99.90;;;;;;5074703;28;20434;-70
2023/12/04 10:43:10;;;;;;;12.02;7.00;;;2.80;99.90;;;;;;5074832;28;20533;-70
2023/12/04 10:45:38;;;;;;;11.98;6.65;;;2.90;99.90;;;;;;5074215;28;20089;-70
2023/12/04 10:48:05;;;;;;;10.98;6.88;;;3.00;99.90;;;;;;5074844;28;20056;-69
2023/12/04 10:50:33;;;;;;;10.15;6.18;;;2.90;99.90;;;;;;5074664;28;20062;-70
2023/12/04 10:53:03;;;;;;;10.88;6.28;;;3.00;99.90;;;;;;5073133;28;20109;-71
2023/12/04 10:55:32;;;;;;;12.02;6.53;;;3.00;99.90;;;;;;5073762;28;20483;-69
2023/12/04 10:58:03;;;;;;;10.63;6.47;;;3.00;99.90;;;;;;5091546;28;20442;-70
2023/12/04 11:00:33;;;;;;;11.02;6.88;;;3.10;99.90;;;;;;5073229;28;20486;-70
2023/12/04 11:03:06;;;;;;;10.15;6.65;;;3.20;99.90;;;;;;5074129;28;20397;-69
2023/12/04 11:05:37;;;;;;;10.43;6.57;;;3.50;99.90;;;;;;5073554;28;20048;-69
2023/12/04 11:08:06;;;;;;;8.65;5.88;;;3.70;99.90;;;;;;5072403;28;20048;-69
2023/12/04 11:10:41;;;;;;;9.93;6.50;;;3.60;99.90;;;;;;5073963;28;20142;-69
2023/12/04 11:13:16;;;;;;;9.63;6.22;;;3.90;99.90;;;;;;5073861;28;20400;-69
2023/12/04 11:15:46;;;;;;;10.70;6.63;;;4.20;99.90;;;;;;5091980;28;20094;-69
2023/12/04 11:18:16;;;;;;;9.07;5.80;;;4.20;99.90;;;;;;5074006;28;20052;-70
2023/12/04 11:20:49;;;;;;;9.82;6.30;;;4.40;99.90;;;;;;5072257;28;20052;-71
2023/12/04 11:23:16;;;;;;;8.15;5.75;;;4.60;99.90;;;;;;5073050;28;20036;-70
2023/12/04 11:25:47;;;;;;;11.55;6.68;;;4.80;99.90;;;;;;5073868;28;20083;-69
2023/12/04 11:28:16;;;;;;;10.00;6.47;;;4.70;99.90;;;;;;5073300;28;20044;-70
2023/12/04 11:30:43;;;;;;;9.05;5.85;;;4.80;99.90;;;;;;5073640;28;20083;-71
2023/12/04 11:33:11;;;;;;;11.30;6.68;;;4.80;99.90;;;;;;5073316;28;20097;-70
2023/12/04 11:35:39;;;;;;;9.77;6.63;;;4.80;99.90;;;;;;5073309;28;20093;-71
2023/12/04 11:38:07;;;;;;;8.85;6.40;;;4.50;99.90;;;;;;5073847;28;20131;-70
2023/12/04 11:40:36;;;;;;;12.10;6.95;;;4.40;99.90;;;;;;5071904;28;20139;-69
2023/12/04 11:43:23;;;;;;;9.77;6.70;;;4.20;99.90;;;;;;5064189;28;20079;-69
2023/12/04 11:45:50;;;;;;;8.15;5.72;;;4.10;99.90;;;;;;5065996;28;20074;-70
2023/12/04 11:48:17;;;;;;;10.75;6.50;;;3.90;99.90;;;;;;5065823;28;20138;-70
2023/12/04 11:50:44;;;;;;;11.07;6.32;;;4.00;99.90;;;;;;5066692;28;20177;-71
2023/12/04 11:53:13;;;;;;;10.23;6.88;;;3.90;99.90;;;;;;5065441;28;20090;-69
2023/12/04 11:55:41;;;;;;;11.95;6.30;;;3.90;99.90;;;;;;5066185;28;20135;-70
2023/12/04 11:58:11;;;;;;;9.45;5.72;;;3.90;99.90;;;;;;5067467;28;20055;-70
2023/12/04 12:00:38;;;;;;;8.73;5.93;;;3.80;99.90;;;;;;5066537;28;20048;-70
2023/12/04 12:03:09;;;;;;;9.15;6.13;;;3.50;99.90;;;;;;5066866;28;20908;-70
2023/12/04 12:05:38;;;;;;;12.23;6.93;;;3.40;99.90;;;;;;5067763;28;20067;-70
2023/12/04 12:08:07;;;;;;;10.10;6.13;;;3.30;99.90;;;;;;5065499;28;20068;-70
2023/12/04 12:10:34;;;;;;;9.02;5.85;;;3.20;99.90;;;;;;5067091;28;20052;-70
2023/12/04 12:13:02;;;;;;;9.68;6.15;;;3.10;99.90;;;;;;5067204;28;20070;-70
2023/12/04 12:15:32;;;;;;;11.40;6.28;;;3.00;99.90;;;;;;5067164;28;20616;-70
2023/12/04 12:17:59;;;;;;;9.90;6.13;;;2.90;99.90;;;;;;5065759;28;20056;-70
2023/12/04 12:20:27;;;;;;;11.85;6.43;;;2.80;99.90;;;;;;5066809;28;20052;-70
2023/12/04 12:22:54;;;;;;;9.70;6.15;;;2.80;99.90;;;;;;5067100;28;20056;-70
2023/12/04 12:25:22;;;;;;;17.25;6.78;;;3.50;99.90;;;;;;5067037;28;20431;-70
2023/12/04 12:27:49;;;;;;;12.55;6.38;;;1.60;99.90;;;;;;5070096;28;20044;-69
2023/12/04 12:30:16;;;;;;;11.00;6.13;;;2.60;99.90;;;;;;5066596;28;20098;-70
2023/12/04 12:32:44;;;;;;;9.85;5.85;;;2.60;99.90;;;;;;5071403;28;20483;-70
2023/12/04 12:35:11;;;;;;;11.38;6.60;;;2.90;99.90;;;;;;5073773;28;20102;-69
2023/12/04 12:37:40;;;;;;;9.80;5.50;;;2.40;99.90;;;;;;5074103;28;20106;-69
2023/12/04 12:40:09;;;;;;;7.80;5.63;;;2.50;99.90;;;;;;5076625;28;20117;-70
2023/12/04 12:42:36;;;;;;;11.25;6.78;;;2.40;99.90;;;;;;5075598;28;20048;-70